sensor_id;sensor_type;location;lat;lon;timestamp;pressure;altitude;pressure_sealevel;temperature;humidity
69780;BME280;57052;55.602;38.096;2022-07-29T00:02:02;100265.31;;;21.46;60.74
69780;BME280;57052;55.602;38.096;2022-07-29T00:04:28;100266.22;;;21.50;60.57
69780;BME280;57052;55.602;38.096;2022-07-29T00:06:54;100274.03;;;21.48;60.44
69780;BME280;57052;55.602;38.096;2022-07-29T00:09:19;100267.25;;;21.45;60.26
69780;BME280;57052;55.602;38.096;2022-07-29T00:11:45;100267.59;;;21.44;59.87
69780;BME280;57052;55.602;38.096;2022-07-29T00:14:10;100260.38;;;21.39;59.90
69780;BME280;57052;55.602;38.096;2022-07-29T00:16:36;100267.81;;;21.39;59.73
69780;BME280;57052;55.602;38.096;2022-07-29T00:19:02;100271.91;;;21.33;59.54
69780;BME280;57052;55.602;38.096;2022-07-29T00:21:28;100274.56;;;21.29;59.51
69780;BME280;57052;55.602;38.096;2022-07-29T00:23:54;100288.34;;;21.29;59.41
69780;BME280;57052;55.602;38.096;2022-07-29T00:26:20;100285.78;;;21.24;59.05
69780;BME280;57052;55.602;38.096;2022-07-29T00:28:45;100281.06;;;21.25;59.07
69780;BME280;57052;55.602;38.096;2022-07-29T00:31:11;100277.19;;;21.26;59.04
69780;BME280;57052;55.602;38.096;2022-07-29T00:33:37;100287.84;;;21.27;59.18
69780;BME280;57052;55.602;38.096;2022-07-29T00:36:03;100285.78;;;21.24;58.77
69780;BME280;57052;55.602;38.096;2022-07-29T00:38:29;100283.03;;;21.24;58.75
69780;BME280;57052;55.602;38.096;2022-07-29T00:40:54;100291.75;;;21.26;58.99
69780;BME280;57052;55.602;38.096;2022-07-29T00:43:20;100292.22;;;21.28;59.14
69780;BME280;57052;55.602;38.096;2022-07-29T00:45:45;100289.81;;;21.27;59.15
69780;BME280;57052;55.602;38.096;2022-07-29T00:48:11;100287.59;;;21.20;58.79
69780;BME280;57052;55.602;38.096;2022-07-29T00:50:37;100298.84;;;21.27;58.92
69780;BME280;57052;55.602;38.096;2022-07-29T00:53:04;100295.53;;;21.22;58.94
69780;BME280;57052;55.602;38.096;2022-07-29T00:55:31;100305.28;;;21.19;58.99
69780;BME280;57052;55.602;38.096;2022-07-29T00:57:58;100300.66;;;21.11;58.95
69780;BME280;57052;55.602;38.096;2022-07-29T01:00:25;100295.34;;;21.06;58.82
69780;BME280;57052;55.602;38.096;2022-07-29T01:02:51;100312.16;;;21.04;58.60
69780;BME280;57052;55.602;38.096;2022-07-29T01:05:19;100311.56;;;20.99;58.37
69780;BME280;57052;55.602;38.096;2022-07-29T01:07:46;100314.66;;;20.97;58.16
69780;BME280;57052;55.602;38.096;2022-07-29T01:10:13;100308.06;;;20.90;58.07
69780;BME280;57052;55.602;38.096;2022-07-29T01:12:40;100312.44;;;20.91;57.75
69780;BME280;57052;55.602;38.096;2022-07-29T01:15:08;100318.81;;;20.83;57.64
69780;BME280;57052;55.602;38.096;2022-07-29T01:26:30;100322.00;;;20.43;56.74
69780;BME280;57052;55.602;38.096;2022-07-29T01:34:25;100321.56;;;20.33;57.45
69780;BME280;57052;55.602;38.096;2022-07-29T01:39:47;100318.06;;;20.15;57.98
69780;BME280;57052;55.602;38.096;2022-07-29T01:47:20;100327.44;;;20.14;58.22
69780;BME280;57052;55.602;38.096;2022-07-29T01:49:51;100329.22;;;20.19;58.35
69780;BME280;57052;55.602;38.096;2022-07-29T01:52:41;100324.56;;;20.11;58.10
69780;BME280;57052;55.602;38.096;2022-07-29T01:55:14;100329.25;;;20.10;58.11
69780;BME280;57052;55.602;38.096;2022-07-29T01:57:43;100330.72;;;20.08;58.36
69780;BME280;57052;55.602;38.096;2022-07-29T02:00:10;100317.69;;;19.96;58.31
69780;BME280;57052;55.602;38.096;2022-07-29T02:02:37;100303.63;;;19.89;58.47
69780;BME280;57052;55.602;38.096;2022-07-29T02:05:05;100314.44;;;19.94;58.47
69780;BME280;57052;55.602;38.096;2022-07-29T02:07:33;100310.59;;;19.87;58.56
69780;BME280;57052;55.602;38.096;2022-07-29T02:10:02;100320.63;;;19.91;58.54
69780;BME280;57052;55.602;38.096;2022-07-29T02:12:31;100327.22;;;19.90;58.65
69780;BME280;57052;55.602;38.096;2022-07-29T02:15:18;100311.75;;;19.77;58.71
69780;BME280;57052;55.602;38.096;2022-07-29T02:17:49;100318.06;;;19.77;58.59
69780;BME280;57052;55.602;38.096;2022-07-29T02:20:16;100322.44;;;19.78;58.79
69780;BME280;57052;55.602;38.096;2022-07-29T02:22:44;100325.38;;;19.73;58.79
69780;BME280;57052;55.602;38.096;2022-07-29T02:25:11;100330.69;;;19.70;58.66
69780;BME280;57052;55.602;38.096;2022-07-29T02:27:38;100340.25;;;19.64;58.86
69780;BME280;57052;55.602;38.096;2022-07-29T02:30:05;100334.94;;;19.59;58.94
69780;BME280;57052;55.602;38.096;2022-07-29T02:32:34;100342.19;;;19.55;58.96
69780;BME280;57052;55.602;38.096;2022-07-29T02:35:02;100319.75;;;19.36;58.94
69780;BME280;57052;55.602;38.096;2022-07-29T02:37:30;100343.81;;;19.47;58.96
69780;BME280;57052;55.602;38.096;2022-07-29T02:39:57;100337.69;;;19.42;59.08
69780;BME280;57052;55.602;38.096;2022-07-29T02:42:26;100337.34;;;19.52;59.20
69780;BME280;57052;55.602;38.096;2022-07-29T02:44:52;100341.72;;;19.53;59.12
69780;BME280;57052;55.602;38.096;2022-07-29T02:47:31;100343.34;;;19.45;59.20
69780;BME280;57052;55.602;38.096;2022-07-29T02:50:11;100325.91;;;19.33;59.18
69780;BME280;57052;55.602;38.096;2022-07-29T02:52:45;100340.94;;;19.44;59.40
69780;BME280;57052;55.602;38.096;2022-07-29T02:55:26;100346.41;;;19.52;59.51
69780;BME280;57052;55.602;38.096;2022-07-29T02:57:59;100352.88;;;19.56;59.60
69780;BME280;57052;55.602;38.096;2022-07-29T03:00:28;100346.41;;;19.61;59.19
69780;BME280;57052;55.602;38.096;2022-07-29T03:02:56;100349.09;;;19.69;59.14
69780;BME280;57052;55.602;38.096;2022-07-29T03:05:24;100335.41;;;19.61;58.96
69780;BME280;57052;55.602;38.096;2022-07-29T03:08:00;100343.00;;;19.64;59.28
69780;BME280;57052;55.602;38.096;2022-07-29T03:10:26;100351.69;;;19.74;59.13
69780;BME280;57052;55.602;38.096;2022-07-29T03:12:54;100342.84;;;19.69;58.90
69780;BME280;57052;55.602;38.096;2022-07-29T03:15:21;100353.94;;;19.72;59.05
69780;BME280;57052;55.602;38.096;2022-07-29T03:17:47;100353.31;;;19.75;59.01
69780;BME280;57052;55.602;38.096;2022-07-29T03:20:13;100348.63;;;19.76;58.86
69780;BME280;57052;55.602;38.096;2022-07-29T03:22:40;100346.53;;;19.73;58.62
69780;BME280;57052;55.602;38.096;2022-07-29T03:25:16;100351.06;;;19.69;58.54
69780;BME280;57052;55.602;38.096;2022-07-29T03:27:43;100349.91;;;19.70;58.54
69780;BME280;57052;55.602;38.096;2022-07-29T03:30:10;100354.47;;;19.66;58.61
69780;BME280;57052;55.602;38.096;2022-07-29T03:32:36;100356.22;;;19.62;58.58
69780;BME280;57052;55.602;38.096;2022-07-29T03:35:02;100357.22;;;19.66;58.59
69780;BME280;57052;55.602;38.096;2022-07-29T03:37:29;100352.03;;;19.73;58.50
69780;BME280;57052;55.602;38.096;2022-07-29T03:39:57;100352.50;;;19.75;58.39
69780;BME280;57052;55.602;38.096;2022-07-29T03:42:28;100354.59;;;19.78;57.81
69780;BME280;57052;55.602;38.096;2022-07-29T03:44:57;100358.28;;;19.82;57.83
69780;BME280;57052;55.602;38.096;2022-07-29T03:47:26;100362.66;;;19.83;57.72
69780;BME280;57052;55.602;38.096;2022-07-29T03:50:00;100358.75;;;19.84;57.66
69780;BME280;57052;55.602;38.096;2022-07-29T03:52:28;100371.38;;;19.85;57.62
69780;BME280;57052;55.602;38.096;2022-07-29T03:54:54;100368.63;;;19.85;57.51
69780;BME280;57052;55.602;38.096;2022-07-29T03:57:25;100362.31;;;19.84;57.19
69780;BME280;57052;55.602;38.096;2022-07-29T03:59:53;100363.75;;;19.91;57.42
69780;BME280;57052;55.602;38.096;2022-07-29T04:02:19;100374.88;;;19.94;57.31
69780;BME280;57052;55.602;38.096;2022-07-29T04:04:45;100368.91;;;19.92;57.08
69780;BME280;57052;55.602;38.096;2022-07-29T04:07:15;100364.41;;;19.88;56.87
69780;BME280;57052;55.602;38.096;2022-07-29T04:09:41;100356.34;;;19.82;56.89
69780;BME280;57052;55.602;38.096;2022-07-29T04:12:07;100370.38;;;19.90;56.64
69780;BME280;57052;55.602;38.096;2022-07-29T04:14:34;100372.66;;;19.88;56.74
69780;BME280;57052;55.602;38.096;2022-07-29T04:17:03;100378.97;;;19.79;56.01
69780;BME280;57052;55.602;38.096;2022-07-29T04:19:30;100384.13;;;19.90;56.42
69780;BME280;57052;55.602;38.096;2022-07-29T04:21:57;100378.31;;;19.91;56.36
69780;BME280;57052;55.602;38.096;2022-07-29T04:24:23;100369.75;;;19.84;56.42
69780;BME280;57052;55.602;38.096;2022-07-29T04:26:48;100384.13;;;19.90;56.16
69780;BME280;57052;55.602;38.096;2022-07-29T04:29:14;100379.25;;;19.95;56.30
69780;BME280;57052;55.602;38.096;2022-07-29T04:31:40;100378.31;;;19.91;56.17
69780;BME280;57052;55.602;38.096;2022-07-29T04:34:06;100381.03;;;20.00;55.80
69780;BME280;57052;55.602;38.096;2022-07-29T04:36:32;100380.06;;;19.96;55.79
69780;BME280;57052;55.602;38.096;2022-07-29T04:38:58;100387.31;;;20.00;55.97
69780;BME280;57052;55.602;38.096;2022-07-29T04:41:24;100368.63;;;19.94;55.68
69780;BME280;57052;55.602;38.096;2022-07-29T04:43:49;100386.81;;;20.07;55.45
69780;BME280;57052;55.602;38.096;2022-07-29T04:46:15;100381.63;;;20.14;55.65
69780;BME280;57052;55.602;38.096;2022-07-29T04:48:41;100384.97;;;20.19;55.58
69780;BME280;57052;55.602;38.096;2022-07-29T04:51:07;100393.25;;;20.28;55.53
69780;BME280;57052;55.602;38.096;2022-07-29T04:53:32;100390.78;;;20.35;55.16
69780;BME280;57052;55.602;38.096;2022-07-29T04:55:58;100382.88;;;20.33;54.92
69780;BME280;57052;55.602;38.096;2022-07-29T04:58:24;100397.38;;;20.42;54.72
69780;BME280;57052;55.602;38.096;2022-07-29T05:00:50;100379.94;;;20.38;54.44
69780;BME280;57052;55.602;38.096;2022-07-29T05:03:16;100382.03;;;20.41;54.33
69780;BME280;57052;55.602;38.096;2022-07-29T05:05:42;100384.09;;;20.44;54.22
69780;BME280;57052;55.602;38.096;2022-07-29T05:08:07;100386.66;;;20.50;54.24
69780;BME280;57052;55.602;38.096;2022-07-29T05:10:34;100387.75;;;20.57;54.07
69780;BME280;57052;55.602;38.096;2022-07-29T05:13:06;100386.44;;;20.63;53.42
69780;BME280;57052;55.602;38.096;2022-07-29T05:15:33;100384.13;;;20.74;53.77
69780;BME280;57052;55.602;38.096;2022-07-29T05:17:58;100387.78;;;20.78;53.23
69780;BME280;57052;55.602;38.096;2022-07-29T05:20:24;100384.84;;;20.83;52.74
69780;BME280;57052;55.602;38.096;2022-07-29T05:22:58;100391.47;;;20.82;50.78
69780;BME280;57052;55.602;38.096;2022-07-29T05:25:24;100389.69;;;20.86;51.94
69780;BME280;57052;55.602;38.096;2022-07-29T05:27:50;100386.47;;;20.84;52.04
69780;BME280;57052;55.602;38.096;2022-07-29T05:30:16;100391.47;;;20.82;51.72
69780;BME280;57052;55.602;38.096;2022-07-29T05:32:41;100390.19;;;20.79;51.62
69780;BME280;57052;55.602;38.096;2022-07-29T05:35:07;100388.72;;;20.82;51.46
69780;BME280;57052;55.602;38.096;2022-07-29T05:37:33;100394.53;;;20.89;51.42
69780;BME280;57052;55.602;38.096;2022-07-29T05:39:59;100395.47;;;20.93;51.22
69780;BME280;57052;55.602;38.096;2022-07-29T05:42:25;100386.34;;;21.01;50.79
69780;BME280;57052;55.602;38.096;2022-07-29T05:44:51;100396.03;;;21.07;51.08
69780;BME280;57052;55.602;38.096;2022-07-29T05:47:17;100366.13;;;20.97;50.66
69780;BME280;57052;55.602;38.096;2022-07-29T05:49:42;100387.06;;;21.19;50.47
69780;BME280;57052;55.602;38.096;2022-07-29T05:52:08;100384.56;;;21.26;50.67
69780;BME280;57052;55.602;38.096;2022-07-29T05:54:34;100397.31;;;21.30;50.00
69780;BME280;57052;55.602;38.096;2022-07-29T05:57:00;100386.03;;;21.23;49.62
69780;BME280;57052;55.602;38.096;2022-07-29T05:59:25;100382.16;;;21.24;49.46
69780;BME280;57052;55.602;38.096;2022-07-29T06:01:51;100386.19;;;21.27;49.59
69780;BME280;57052;55.602;38.096;2022-07-29T06:04:17;100389.19;;;21.34;49.35
69780;BME280;57052;55.602;38.096;2022-07-29T06:06:42;100381.53;;;21.39;49.37
69780;BME280;57052;55.602;38.096;2022-07-29T06:09:08;100385.69;;;21.45;49.05
69780;BME280;57052;55.602;38.096;2022-07-29T06:11:33;100379.84;;;21.47;48.95
69780;BME280;57052;55.602;38.096;2022-07-29T06:13:59;100377.09;;;21.47;48.65
69780;BME280;57052;55.602;38.096;2022-07-29T06:16:24;100383.88;;;21.49;48.17
69780;BME280;57052;55.602;38.096;2022-07-29T06:18:50;100372.72;;;21.46;48.27
69780;BME280;57052;55.602;38.096;2022-07-29T06:21:16;100376.84;;;21.52;48.18
69780;BME280;57052;55.602;38.096;2022-07-29T06:23:42;100387.75;;;21.48;47.71
69780;BME280;57052;55.602;38.096;2022-07-29T06:26:07;100384.19;;;21.48;47.46
69780;BME280;57052;55.602;38.096;2022-07-29T06:28:34;100386.50;;;21.46;47.63
69780;BME280;57052;55.602;38.096;2022-07-29T06:30:59;100371.91;;;21.45;47.88
69780;BME280;57052;55.602;38.096;2022-07-29T06:33:25;100365.28;;;21.46;47.79
69780;BME280;57052;55.602;38.096;2022-07-29T06:35:50;100371.59;;;21.47;47.98
69780;BME280;57052;55.602;38.096;2022-07-29T06:38:16;100369.50;;;21.44;47.89
69780;BME280;57052;55.602;38.096;2022-07-29T06:40:43;100376.53;;;21.53;47.83
69780;BME280;57052;55.602;38.096;2022-07-29T06:43:36;100371.94;;;21.57;47.60
69780;BME280;57052;55.602;38.096;2022-07-29T06:46:05;100371.13;;;21.57;46.87
69780;BME280;57052;55.602;38.096;2022-07-29T06:48:32;100372.75;;;21.58;46.50
69780;BME280;57052;55.602;38.096;2022-07-29T06:50:58;100363.22;;;21.55;46.74
69780;BME280;57052;55.602;38.096;2022-07-29T06:53:24;100380.13;;;21.66;46.47
69780;BME280;57052;55.602;38.096;2022-07-29T06:55:50;100385.91;;;21.73;46.64
69780;BME280;57052;55.602;38.096;2022-07-29T06:58:15;100389.13;;;21.75;46.62
69780;BME280;57052;55.602;38.096;2022-07-29T07:00:44;100390.06;;;21.79;46.47
69780;BME280;57052;55.602;38.096;2022-07-29T07:03:10;100382.13;;;21.78;46.42
69780;BME280;57052;55.602;38.096;2022-07-29T07:05:38;100390.13;;;21.91;46.34
69780;BME280;57052;55.602;38.096;2022-07-29T07:08:04;100392.09;;;22.03;46.74
69780;BME280;57052;55.602;38.096;2022-07-29T07:10:30;100372.56;;;22.08;46.31
69780;BME280;57052;55.602;38.096;2022-07-29T07:12:57;100383.84;;;22.15;46.11
69780;BME280;57052;55.602;38.096;2022-07-29T07:15:22;100378.81;;;22.17;46.39
69780;BME280;57052;55.602;38.096;2022-07-29T07:17:49;100393.41;;;22.29;46.90
69780;BME280;57052;55.602;38.096;2022-07-29T07:20:17;100384.91;;;22.34;47.07
69780;BME280;57052;55.602;38.096;2022-07-29T07:22:43;100398.34;;;22.48;46.31
69780;BME280;57052;55.602;38.096;2022-07-29T07:25:09;100389.63;;;22.46;46.07
69780;BME280;57052;55.602;38.096;2022-07-29T07:27:37;100393.72;;;22.52;46.57
69780;BME280;57052;55.602;38.096;2022-07-29T07:30:04;100397.44;;;22.56;47.03
69780;BME280;57052;55.602;38.096;2022-07-29T07:32:34;100397.44;;;22.56;46.62
69780;BME280;57052;55.602;38.096;2022-07-29T07:35:00;100386.03;;;22.58;46.29
69780;BME280;57052;55.602;38.096;2022-07-29T07:37:26;100397.09;;;22.70;45.73
69780;BME280;57052;55.602;38.096;2022-07-29T07:39:52;100384.22;;;22.74;45.36
69780;BME280;57052;55.602;38.096;2022-07-29T07:42:18;100391.69;;;22.85;45.22
69780;BME280;57052;55.602;38.096;2022-07-29T07:44:44;100385.22;;;22.93;45.44
69780;BME280;57052;55.602;38.096;2022-07-29T07:47:11;100391.16;;;23.08;45.45
69780;BME280;57052;55.602;38.096;2022-07-29T07:49:38;100391.41;;;23.15;45.17
69780;BME280;57052;55.602;38.096;2022-07-29T07:52:04;100382.41;;;23.18;44.71
69780;BME280;57052;55.602;38.096;2022-07-29T07:54:30;100393.19;;;23.23;45.05
69780;BME280;57052;55.602;38.096;2022-07-29T07:56:56;100395.50;;;23.21;45.33
69780;BME280;57052;55.602;38.096;2022-07-29T07:59:22;100393.19;;;23.23;45.30
69780;BME280;57052;55.602;38.096;2022-07-29T08:01:48;100394.31;;;23.34;45.42
69780;BME280;57052;55.602;38.096;2022-07-29T08:04:14;100394.75;;;23.48;45.18
69780;BME280;57052;55.602;38.096;2022-07-29T08:06:40;100401.28;;;23.55;45.28
69780;BME280;57052;55.602;38.096;2022-07-29T08:09:06;100389.28;;;23.36;44.35
69780;BME280;57052;55.602;38.096;2022-07-29T08:11:31;100399.84;;;23.46;44.71
69780;BME280;57052;55.602;38.096;2022-07-29T08:13:58;100399.84;;;23.46;44.28
69780;BME280;57052;55.602;38.096;2022-07-29T08:16:23;100407.63;;;23.56;44.03
69780;BME280;57052;55.602;38.096;2022-07-29T08:18:51;100395.31;;;23.53;43.14
69780;BME280;57052;55.602;38.096;2022-07-29T08:21:17;100400.47;;;23.55;43.54
69780;BME280;57052;55.602;38.096;2022-07-29T08:23:44;100388.38;;;23.59;43.07
69780;BME280;57052;55.602;38.096;2022-07-29T08:26:19;100395.25;;;23.66;42.59
69780;BME280;57052;55.602;38.096;2022-07-29T08:28:46;100391.16;;;23.75;42.40
69780;BME280;57052;55.602;38.096;2022-07-29T08:31:14;100397.94;;;23.78;42.54
69780;BME280;57052;55.602;38.096;2022-07-29T08:33:41;100391.91;;;23.72;42.29
69780;BME280;57052;55.602;38.096;2022-07-29T08:36:07;100389.41;;;23.67;41.97
69780;BME280;57052;55.602;38.096;2022-07-29T08:38:33;100391.16;;;23.59;41.56
69780;BME280;57052;55.602;38.096;2022-07-29T08:41:02;100392.59;;;23.69;41.19
69780;BME280;57052;55.602;38.096;2022-07-29T08:43:28;100390.47;;;23.78;41.31
69780;BME280;57052;55.602;38.096;2022-07-29T08:45:54;100389.69;;;23.93;40.91
69780;BME280;57052;55.602;38.096;2022-07-29T08:48:24;100391.94;;;24.03;39.52
69780;BME280;57052;55.602;38.096;2022-07-29T08:50:54;100391.00;;;24.11;39.28
69780;BME280;57052;55.602;38.096;2022-07-29T08:53:21;100386.63;;;24.26;40.03
69780;BME280;57052;55.602;38.096;2022-07-29T08:55:50;100374.84;;;24.29;40.17
69780;BME280;57052;55.602;38.096;2022-07-29T08:58:16;100368.78;;;24.39;39.88
69780;BME280;57052;55.602;38.096;2022-07-29T09:00:52;100383.06;;;24.41;37.20
69780;BME280;57052;55.602;38.096;2022-07-29T09:03:20;100376.25;;;24.54;39.04
69780;BME280;57052;55.602;38.096;2022-07-29T09:05:48;100370.06;;;24.61;38.49
69780;BME280;57052;55.602;38.096;2022-07-29T09:08:15;100383.56;;;24.78;38.65
69780;BME280;57052;55.602;38.096;2022-07-29T09:10:42;100382.56;;;24.86;38.44
69780;BME280;57052;55.602;38.096;2022-07-29T09:13:08;100381.13;;;24.92;38.81
69780;BME280;57052;55.602;38.096;2022-07-29T09:15:34;100383.53;;;24.94;38.90
69780;BME280;57052;55.602;38.096;2022-07-29T09:18:00;100382.28;;;24.91;38.45
69780;BME280;57052;55.602;38.096;2022-07-29T09:20:27;100385.34;;;24.86;38.66
69780;BME280;57052;55.602;38.096;2022-07-29T09:23:13;100383.81;;;24.73;38.56
69780;BME280;57052;55.602;38.096;2022-07-29T09:25:40;100380.44;;;24.79;38.31
69780;BME280;57052;55.602;38.096;2022-07-29T09:28:13;100392.09;;;24.73;35.89
69780;BME280;57052;55.602;38.096;2022-07-29T09:30:53;100396.25;;;24.63;34.83
69780;BME280;57052;55.602;38.096;2022-07-29T09:33:21;100391.78;;;24.74;37.13
69780;BME280;57052;55.602;38.096;2022-07-29T09:35:59;100396.84;;;24.88;35.13
69780;BME280;57052;55.602;38.096;2022-07-29T09:38:25;100387.16;;;24.98;36.94
69780;BME280;57052;55.602;38.096;2022-07-29T09:41:02;100395.88;;;25.15;34.53
69780;BME280;57052;55.602;38.096;2022-07-29T09:43:28;100401.19;;;25.43;37.00
69780;BME280;57052;55.602;38.096;2022-07-29T09:45:54;100389.41;;;25.46;36.04
69780;BME280;57052;55.602;38.096;2022-07-29T09:48:24;100388.03;;;25.56;35.19
69780;BME280;57052;55.602;38.096;2022-07-29T09:50:51;100373.44;;;25.59;36.25
69780;BME280;57052;55.602;38.096;2022-07-29T09:53:37;100389.44;;;25.88;35.48
69780;BME280;57052;55.602;38.096;2022-07-29T09:56:05;100392.22;;;26.10;35.79
69780;BME280;57052;55.602;38.096;2022-07-29T09:58:32;100395.66;;;26.23;36.16
69780;BME280;57052;55.602;38.096;2022-07-29T10:01:01;100390.06;;;26.20;35.60
69780;BME280;57052;55.602;38.096;2022-07-29T10:03:27;100395.03;;;26.33;35.88
69780;BME280;57052;55.602;38.096;2022-07-29T10:06:09;100399.97;;;26.43;33.58
69780;BME280;57052;55.602;38.096;2022-07-29T10:08:36;100373.25;;;26.58;35.26
69780;BME280;57052;55.602;38.096;2022-07-29T10:11:14;100384.28;;;26.77;32.28
69780;BME280;57052;55.602;38.096;2022-07-29T10:13:41;100379.13;;;26.79;33.88
69780;BME280;57052;55.602;38.096;2022-07-29T10:16:08;100391.53;;;26.85;33.95
69780;BME280;57052;55.602;38.096;2022-07-29T10:18:34;100385.22;;;26.88;34.39
69780;BME280;57052;55.602;38.096;2022-07-29T10:21:00;100380.56;;;26.96;33.70
69780;BME280;57052;55.602;38.096;2022-07-29T10:23:29;100381.00;;;26.98;33.40
69780;BME280;57052;55.602;38.096;2022-07-29T10:25:56;100371.69;;;27.13;33.49
69780;BME280;57052;55.602;38.096;2022-07-29T10:28:21;100367.47;;;27.26;33.54
69780;BME280;57052;55.602;38.096;2022-07-29T10:30:50;100374.84;;;27.41;32.41
69780;BME280;57052;55.602;38.096;2022-07-29T10:44:09;100370.13;;;28.19;32.26
69780;BME280;57052;55.602;38.096;2022-07-29T10:46:39;100370.31;;;28.43;32.66
69780;BME280;57052;55.602;38.096;2022-07-29T10:49:14;100378.66;;;28.40;31.75
69780;BME280;57052;55.602;38.096;2022-07-29T10:54:19;100376.13;;;28.72;31.83
69780;BME280;57052;55.602;38.096;2022-07-29T10:59:44;100377.94;;;29.11;31.89
69780;BME280;57052;55.602;38.096;2022-07-29T11:02:45;100379.66;;;29.34;30.70
69780;BME280;57052;55.602;38.096;2022-07-29T11:05:17;100384.13;;;29.49;31.02
69780;BME280;57052;55.602;38.096;2022-07-29T11:10:39;100392.47;;;29.38;31.47
69780;BME280;57052;55.602;38.096;2022-07-29T11:13:05;100386.06;;;29.31;31.11
69780;BME280;57052;55.602;38.096;2022-07-29T11:15:53;100384.75;;;29.17;29.90
69780;BME280;57052;55.602;38.096;2022-07-29T11:18:20;100389.06;;;29.04;30.95
69780;BME280;57052;55.602;38.096;2022-07-29T11:20:50;100385.06;;;29.02;31.22
69780;BME280;57052;55.602;38.096;2022-07-29T11:23:32;100379.50;;;28.98;30.48
69780;BME280;57052;55.602;38.096;2022-07-29T11:28:51;100385.44;;;28.97;30.06
69780;BME280;57052;55.602;38.096;2022-07-29T11:34:20;100382.06;;;28.63;30.30
69780;BME280;57052;55.602;38.096;2022-07-29T11:39:30;100390.91;;;28.32;31.22
69780;BME280;57052;55.602;38.096;2022-07-29T11:47:33;100391.91;;;28.10;32.45
69780;BME280;57052;55.602;38.096;2022-07-29T11:50:01;100377.06;;;27.98;32.16
69780;BME280;57052;55.602;38.096;2022-07-29T11:52:37;100395.50;;;28.10;31.95
69780;BME280;57052;55.602;38.096;2022-07-29T11:55:10;100380.31;;;28.01;32.12
69780;BME280;57052;55.602;38.096;2022-07-29T11:57:45;100387.00;;;27.99;31.75
69780;BME280;57052;55.602;38.096;2022-07-29T12:00:41;100380.94;;;27.54;31.04
69780;BME280;57052;55.602;38.096;2022-07-29T12:03:10;100390.28;;;27.72;31.71
69780;BME280;57052;55.602;38.096;2022-07-29T12:05:42;100386.97;;;27.59;32.61
69780;BME280;57052;55.602;38.096;2022-07-29T12:08:16;100390.50;;;27.26;31.46
69780;BME280;57052;55.602;38.096;2022-07-29T12:10:48;100388.13;;;27.25;32.41
69780;BME280;57052;55.602;38.096;2022-07-29T12:13:15;100376.59;;;27.23;32.81
69780;BME280;57052;55.602;38.096;2022-07-29T12:15:42;100379.44;;;27.30;33.05
69780;BME280;57052;55.602;38.096;2022-07-29T12:18:13;100383.88;;;27.34;33.08
69780;BME280;57052;55.602;38.096;2022-07-29T12:20:39;100377.91;;;27.36;32.81
69780;BME280;57052;55.602;38.096;2022-07-29T12:23:06;100367.38;;;27.49;32.51
69780;BME280;57052;55.602;38.096;2022-07-29T12:25:34;100376.84;;;27.77;33.00
69780;BME280;57052;55.602;38.096;2022-07-29T12:28:05;100373.09;;;27.99;32.83
69780;BME280;57052;55.602;38.096;2022-07-29T12:30:50;100373.50;;;27.98;30.05
69780;BME280;57052;55.602;38.096;2022-07-29T12:33:24;100380.88;;;28.20;31.71
69780;BME280;57052;55.602;38.096;2022-07-29T12:35:52;100373.75;;;28.23;31.24
69780;BME280;57052;55.602;38.096;2022-07-29T12:38:19;100371.91;;;28.44;31.00
69780;BME280;57052;55.602;38.096;2022-07-29T12:40:46;100376.38;;;28.56;30.04
69780;BME280;57052;55.602;38.096;2022-07-29T12:43:14;100372.25;;;28.87;30.56
69780;BME280;57052;55.602;38.096;2022-07-29T12:45:43;100372.81;;;29.17;30.06
69780;BME280;57052;55.602;38.096;2022-07-29T12:48:09;100366.50;;;29.24;29.67
69780;BME280;57052;55.602;38.096;2022-07-29T12:50:36;100376.50;;;29.39;28.90
69780;BME280;57052;55.602;38.096;2022-07-29T12:53:12;100363.38;;;29.39;27.61
69780;BME280;57052;55.602;38.096;2022-07-29T12:55:46;100376.13;;;29.44;29.43
69780;BME280;57052;55.602;38.096;2022-07-29T12:58:33;100387.72;;;29.49;28.98
69780;BME280;57052;55.602;38.096;2022-07-29T13:01:11;100376.16;;;29.47;28.46
69780;BME280;57052;55.602;38.096;2022-07-29T13:03:54;100378.13;;;29.47;28.66
69780;BME280;57052;55.602;38.096;2022-07-29T13:06:42;100383.66;;;29.33;27.86
69780;BME280;57052;55.602;38.096;2022-07-29T13:09:14;100365.56;;;28.98;28.99
69780;BME280;57052;55.602;38.096;2022-07-29T13:11:45;100377.88;;;28.97;29.80
69780;BME280;57052;55.602;38.096;2022-07-29T13:14:13;100362.31;;;28.89;30.39
69780;BME280;57052;55.602;38.096;2022-07-29T13:19:52;100377.00;;;28.83;29.50
69780;BME280;57052;55.602;38.096;2022-07-29T13:22:21;100381.84;;;28.93;30.22
69780;BME280;57052;55.602;38.096;2022-07-29T13:27:21;100383.38;;;28.83;29.77
69780;BME280;57052;55.602;38.096;2022-07-29T13:29:48;100381.81;;;28.86;30.01
69780;BME280;57052;55.602;38.096;2022-07-29T13:32:16;100375.78;;;28.80;29.62
69780;BME280;57052;55.602;38.096;2022-07-29T13:34:42;100377.38;;;28.78;29.91
69780;BME280;57052;55.602;38.096;2022-07-29T13:37:08;100373.75;;;28.74;30.08
69780;BME280;57052;55.602;38.096;2022-07-29T13:39:34;100362.81;;;28.51;29.89
69780;BME280;57052;55.602;38.096;2022-07-29T13:41:59;100380.53;;;28.29;30.36
69780;BME280;57052;55.602;38.096;2022-07-29T13:44:25;100380.53;;;28.25;30.61
69780;BME280;57052;55.602;38.096;2022-07-29T13:46:51;100384.47;;;28.21;30.78
69780;BME280;57052;55.602;38.096;2022-07-29T13:49:16;100381.59;;;28.14;30.73